createdAt,value
2019-04-22T00:02:30.344Z,37.80
2019-04-22T00:08:01.600Z,36.73
2019-04-22T00:13:11.312Z,38.63
2019-04-22T00:18:13.424Z,38.03
2019-04-22T00:23:19.869Z,42.27
2019-04-22T00:28:21.616Z,40.17
2019-04-22T00:33:34.245Z,37.90
2019-04-22T00:38:38.294Z,45.30
2019-04-22T00:43:39.513Z,43.23
2019-04-22T00:49:07.120Z,40.83
2019-04-22T00:53:57.861Z,46.30
2019-04-22T00:59:03.223Z,45.13
2019-04-22T01:04:17.810Z,48.30
2019-04-22T01:09:10.756Z,50.20
2019-04-22T01:14:13.089Z,54.93
2019-04-22T01:19:21.275Z,55.13
2019-04-22T01:24:31.131Z,54.90
2019-04-22T01:29:22.861Z,51.27
2019-04-22T01:34:27.879Z,68.70
2019-04-22T01:39:49.891Z,59.40
2019-04-22T01:44:50.811Z,61.47
2019-04-22T01:49:59.906Z,67.60
2019-04-22T01:55:15.197Z,76.63
2019-04-22T02:00:01.057Z,78.70
2019-04-22T02:05:19.120Z,74.63
2019-04-22T02:10:32.247Z,84.40
2019-04-22T02:15:34.585Z,88.40
2019-04-22T02:25:40.970Z,97.20
2019-04-22T02:31:02.660Z,85.33
2019-04-22T02:41:15.720Z,100.80
2019-04-22T02:46:23.368Z,92.97
2019-04-22T02:51:17.201Z,91.93
2019-04-22T02:56:27.496Z,99.53
2019-04-22T03:01:30.003Z,94.97
2019-04-22T03:06:42.196Z,98.20
2019-04-22T03:11:45.812Z,98.30
2019-04-22T03:16:50.513Z,98.00
2019-04-22T03:21:51.897Z,100.60
2019-04-22T03:32:32.034Z,99.57
2019-04-22T03:37:20.563Z,104.13
2019-04-22T03:57:44.626Z,103.47
2019-04-22T04:02:38.629Z,103.83
2019-04-22T04:17:51.488Z,105.83
2019-04-22T04:23:21.962Z,97.87
2019-04-22T04:28:25.704Z,100.97
2019-04-22T04:33:24.953Z,108.73
2019-04-22T04:38:36.363Z,104.17
2019-04-22T04:48:34.894Z,114.37
2019-04-22T04:53:29.187Z,114.90
2019-04-22T04:59:00.491Z,108.97
2019-04-22T05:14:04.271Z,121.43
2019-04-22T05:18:58.746Z,120.17
2019-04-22T05:24:09.552Z,126.23
2019-04-22T05:29:09.771Z,133.07
2019-04-22T05:34:19.637Z,135.50
2019-04-22T05:39:17.144Z,141.10
2019-04-22T05:44:32.610Z,139.47
2019-04-22T05:49:33.225Z,131.37
2019-04-22T05:54:42.772Z,137.53
2019-04-22T05:59:45.750Z,152.63
2019-04-22T06:04:54.530Z,135.13
2019-04-22T06:10:02.325Z,125.77
2019-04-22T06:15:00.068Z,124.47
2019-04-22T06:20:13.713Z,125.30
2019-04-22T06:25:23.195Z,131.20
2019-04-22T06:30:20.627Z,117.30
2019-04-22T06:35:29.999Z,125.97
2019-04-22T06:40:31.832Z,121.70
2019-04-22T06:45:30.884Z,122.33
2019-04-22T06:50:43.350Z,113.30
2019-04-22T06:55:45.623Z,113.40
2019-04-22T07:00:52.116Z,107.83
2019-04-22T07:05:59.510Z,108.57
2019-04-22T07:11:04.826Z,110.17
2019-04-22T07:16:18.592Z,112.23
2019-04-22T07:21:12.577Z,110.30
2019-04-22T07:26:20.395Z,103.93
2019-04-22T07:31:42.787Z,97.97
2019-04-22T07:41:37.904Z,92.27
2019-04-22T07:46:50.155Z,88.27
2019-04-22T07:51:49.809Z,82.67
2019-04-22T07:57:05.683Z,91.13
2019-04-22T08:02:02.037Z,82.40
2019-04-22T08:07:12.386Z,87.67
2019-04-22T08:12:12.952Z,78.73
2019-04-22T08:17:45.163Z,86.17
2019-04-22T08:22:26.112Z,81.97
2019-04-22T08:27:36.945Z,77.80
2019-04-22T08:32:41.614Z,78.67
2019-04-22T08:37:52.571Z,74.40
2019-04-22T08:42:55.499Z,73.53
2019-04-22T08:47:57.732Z,74.73
2019-04-22T08:53:09.423Z,71.43
2019-04-22T08:58:25.064Z,64.57
2019-04-22T09:03:24.361Z,66.40
2019-04-22T09:08:27.905Z,72.53
2019-04-22T09:13:29.996Z,62.50
2019-04-22T09:18:36.445Z,53.50
2019-04-22T09:23:48.178Z,58.93
2019-04-22T09:28:44.601Z,53.97
2019-04-22T09:33:49.643Z,55.27
2019-04-22T09:38:55.396Z,56.20
2019-04-22T09:49:12.051Z,62.33
2019-04-22T09:54:22.086Z,63.63
2019-04-22T09:59:20.560Z,57.13
2019-04-22T10:04:23.450Z,67.97
2019-04-22T10:19:47.986Z,72.33
2019-04-22T10:24:52.035Z,69.43
2019-04-22T10:30:00.181Z,66.07
2019-04-22T10:34:45.839Z,72.33
2019-04-22T10:39:51.366Z,79.20
2019-04-22T10:44:50.346Z,69.20
2019-04-22T10:49:54.594Z,69.83
2019-04-22T10:55:01.121Z,67.60
2019-04-22T11:00:05.923Z,71.87
2019-04-22T11:05:10.369Z,77.37
2019-04-22T11:10:29.353Z,68.00
2019-04-22T11:15:20.338Z,68.40
2019-04-22T11:20:25.836Z,75.67
2019-04-22T11:25:30.195Z,73.10
2019-04-22T11:30:36.781Z,76.47
2019-04-22T11:35:41.786Z,70.77
2019-04-22T11:40:51.683Z,77.27
2019-04-22T11:45:53.274Z,77.17
2019-04-22T11:50:57.877Z,78.07
2019-04-22T11:56:02.887Z,79.33
2019-04-22T12:01:08.534Z,87.17
2019-04-22T12:06:13.490Z,74.67
2019-04-22T12:11:18.638Z,75.20
2019-04-22T12:16:23.314Z,66.07
2019-04-22T12:21:29.020Z,58.80
2019-04-22T12:26:34.570Z,64.53
2019-04-22T12:31:39.932Z,62.57
2019-04-22T12:36:44.804Z,57.50
2019-04-22T12:41:49.939Z,52.83
2019-04-22T12:46:54.533Z,44.40
2019-04-22T12:51:58.915Z,44.30
2019-04-22T12:57:03.989Z,51.77
2019-04-22T13:02:09.174Z,55.27
2019-04-22T13:07:13.589Z,51.47
2019-04-22T13:12:19.246Z,49.13
2019-04-22T13:17:23.404Z,39.63
2019-04-22T13:22:27.366Z,39.30
2019-04-22T13:27:33.038Z,35.50
2019-04-22T13:32:38.676Z,44.67
2019-04-22T13:37:44.245Z,38.67
2019-04-22T13:42:51.087Z,36.00
2019-04-22T13:48:11.166Z,34.50
2019-04-22T13:58:17.200Z,26.30
2019-04-22T14:03:12.919Z,21.83
2019-04-22T14:08:18.439Z,24.00
2019-04-22T14:13:23.871Z,29.43
2019-04-22T14:18:28.742Z,23.70
2019-04-22T14:23:33.081Z,24.87
2019-04-22T14:28:37.482Z,25.03
2019-04-22T14:33:46.430Z,23.13
2019-04-22T14:38:48.032Z,22.77
2019-04-22T14:44:56.507Z,27.03
2019-04-22T14:49:24.864Z,18.47
2019-04-22T14:54:24.242Z,24.17
2019-04-22T14:59:13.380Z,21.53
2019-04-22T15:04:17.584Z,23.77
2019-04-22T15:09:21.888Z,23.17
2019-04-22T15:14:27.589Z,19.83
2019-04-22T15:19:31.856Z,16.23
2019-04-22T15:24:36.715Z,21.30
2019-04-22T15:29:41.168Z,17.10
2019-04-22T15:34:45.270Z,20.93
2019-04-22T15:39:49.844Z,17.80
2019-04-22T15:44:54.040Z,24.33
2019-04-22T15:49:58.377Z,21.97
2019-04-22T15:55:03.042Z,15.87
2019-04-22T16:00:22.779Z,20.87
2019-04-22T16:05:14.905Z,18.00
2019-04-22T16:10:19.801Z,19.00
2019-04-22T16:15:24.735Z,18.10
2019-04-22T16:20:30.067Z,20.47
2019-04-22T16:25:35.337Z,23.13
2019-04-22T16:30:39.520Z,19.63
2019-04-22T16:35:44.921Z,25.03
2019-04-22T16:40:50.438Z,23.63
2019-04-22T16:45:55.897Z,24.83
2019-04-22T16:51:00.255Z,23.53
2019-04-22T16:56:04.767Z,21.67
2019-04-22T17:01:10.364Z,23.70
2019-04-22T17:06:14.593Z,21.63
2019-04-22T17:11:20.100Z,18.83
2019-04-22T17:16:26.247Z,21.47
2019-04-22T17:21:31.771Z,22.60
2019-04-22T17:26:36.760Z,24.60
2019-04-22T17:31:48.444Z,17.13
2019-04-22T17:36:46.544Z,19.17
2019-04-22T17:42:09.284Z,14.07
2019-04-22T17:47:10.655Z,18.57
2019-04-22T17:52:27.683Z,18.43
2019-04-22T17:57:29.521Z,16.47
2019-04-22T18:02:30.784Z,16.10
2019-04-22T18:07:38.584Z,16.30
2019-04-22T18:12:53.529Z,15.17
2019-04-22T18:17:55.574Z,18.77
2019-04-22T18:22:51.371Z,20.03
2019-04-22T18:33:07.510Z,20.10
2019-04-22T18:38:28.235Z,19.40
2019-04-22T18:43:24.580Z,21.00
2019-04-22T18:48:27.200Z,19.77
2019-04-22T18:53:35.483Z,22.87
2019-04-22T18:58:42.002Z,25.47
2019-04-22T19:03:46.819Z,25.20
2019-04-22T19:09:08.670Z,28.30
2019-04-22T19:14:06.007Z,37.00
2019-04-22T19:19:30.604Z,33.73
2019-04-22T19:24:17.071Z,34.37
2019-04-22T19:29:25.968Z,33.53
2019-04-22T19:34:30.882Z,36.23
2019-04-22T19:39:33.092Z,40.77
2019-04-22T19:44:37.680Z,33.27
2019-04-22T19:49:55.904Z,36.07
2019-04-22T19:54:54.978Z,37.30
2019-04-22T19:59:51.443Z,37.37
2019-04-22T20:05:05.813Z,37.97
2019-04-22T20:10:07.997Z,35.83
2019-04-22T20:15:09.951Z,33.97
2019-04-22T20:20:26.413Z,29.60
2019-04-22T20:25:14.564Z,25.77
2019-04-22T20:30:34.780Z,26.77
2019-04-22T20:35:39.010Z,30.53
2019-04-22T20:40:40.015Z,31.97
2019-04-22T20:45:48.967Z,26.87
2019-04-22T20:50:52.919Z,24.17
2019-04-22T20:56:02.719Z,29.70
2019-04-22T21:00:55.639Z,21.93
2019-04-22T21:06:08.727Z,29.03
2019-04-22T21:11:17.475Z,23.90
2019-04-22T21:16:27.000Z,21.67
2019-04-22T21:21:33.263Z,22.93
2019-04-22T21:26:36.513Z,19.87
2019-04-22T21:31:38.630Z,18.20
2019-04-22T21:36:48.147Z,16.80
2019-04-22T21:41:52.833Z,14.10
2019-04-22T21:47:08.663Z,24.10
2019-04-22T21:52:06.451Z,35.73
2019-04-22T22:02:17.507Z,45.93
2019-04-22T22:07:11.031Z,44.13
2019-04-22T22:12:24.324Z,43.03
2019-04-22T22:17:31.235Z,37.43
2019-04-22T22:27:40.725Z,33.90
2019-04-22T22:33:00.157Z,33.10
2019-04-22T22:37:55.190Z,35.23
2019-04-22T22:42:45.672Z,29.53
2019-04-22T22:48:15.193Z,29.97
2019-04-22T22:53:20.702Z,34.83
2019-04-22T22:58:24.549Z,31.10
2019-04-22T23:08:54.080Z,29.17
2019-04-22T23:13:56.893Z,33.27
2019-04-22T23:18:25.907Z,33.17
2019-04-22T23:23:51.371Z,39.23
2019-04-22T23:28:50.946Z,37.30
2019-04-22T23:33:56.070Z,42.90
2019-04-22T23:39:09.760Z,47.97
2019-04-22T23:44:20.528Z,49.53
2019-04-22T23:49:16.230Z,49.27
2019-04-22T23:54:23.969Z,50.90
2019-04-22T23:59:38.278Z,49.03
